sensor_id;sensor_type;location;lat;lon;timestamp;pressure;altitude;pressure_sealevel;temperature;humidity
56414;BME280;42318;48.452;19.526;2023-05-12T00:01:30;98394.34;;;20.36;51.64
56414;BME280;42318;48.452;19.526;2023-05-12T00:09:01;98391.06;;;20.34;51.71
56414;BME280;42318;48.452;19.526;2023-05-12T00:16:32;98399.47;;;20.33;51.50
56414;BME280;42318;48.452;19.526;2023-05-12T00:24:02;98395.94;;;20.32;51.70
56414;BME280;42318;48.452;19.526;2023-05-12T00:31:33;98399.47;;;20.33;51.85
56414;BME280;42318;48.452;19.526;2023-05-12T00:39:04;98399.69;;;20.26;51.42
56414;BME280;42318;48.452;19.526;2023-05-12T00:46:35;98403.81;;;20.29;51.82
56414;BME280;42318;48.452;19.526;2023-05-12T00:54:07;98410.84;;;20.25;51.73
56414;BME280;42318;48.452;19.526;2023-05-12T01:01:38;98408.13;;;20.25;51.71
56414;BME280;42318;48.452;19.526;2023-05-12T01:09:09;98418.44;;;20.23;51.61
56414;BME280;42318;48.452;19.526;2023-05-12T01:16:50;98433.44;;;20.25;51.57
56414;BME280;42318;48.452;19.526;2023-05-12T01:24:23;98435.63;;;20.28;51.69
56414;BME280;42318;48.452;19.526;2023-05-12T01:31:57;98422.34;;;20.32;51.49
56414;BME280;42318;48.452;19.526;2023-05-12T01:39:28;98423.72;;;20.34;51.34
56414;BME280;42318;48.452;19.526;2023-05-12T01:46:59;98440.59;;;20.36;51.43
56414;BME280;42318;48.452;19.526;2023-05-12T01:54:31;98429.16;;;20.34;51.33
56414;BME280;42318;48.452;19.526;2023-05-12T02:02:02;98424.88;;;20.38;51.16
56414;BME280;42318;48.452;19.526;2023-05-12T02:09:33;98422.06;;;20.33;51.39
56414;BME280;42318;48.452;19.526;2023-05-12T02:17:03;98421.25;;;20.33;51.42
56414;BME280;42318;48.452;19.526;2023-05-12T02:24:34;98422.84;;;20.29;51.44
56414;BME280;42318;48.452;19.526;2023-05-12T02:32:05;98420.94;;;20.29;51.33
56414;BME280;42318;48.452;19.526;2023-05-12T02:39:36;98406.22;;;20.25;51.42
56414;BME280;42318;48.452;19.526;2023-05-12T02:47:06;98414.66;;;20.24;51.36
56414;BME280;42318;48.452;19.526;2023-05-12T02:54:37;98416.00;;;20.21;51.74
56414;BME280;42318;48.452;19.526;2023-05-12T03:02:08;98427.13;;;20.20;51.58
56414;BME280;42318;48.452;19.526;2023-05-12T03:09:39;98441.00;;;20.18;51.40
56414;BME280;42318;48.452;19.526;2023-05-12T03:17:09;98448.59;;;20.16;51.33
56414;BME280;42318;48.452;19.526;2023-05-12T03:24:40;98455.09;;;20.15;51.25
56414;BME280;42318;48.452;19.526;2023-05-12T03:32:12;98449.09;;;20.13;51.34
56414;BME280;42318;48.452;19.526;2023-05-12T03:39:42;98453.16;;;20.11;51.32
56414;BME280;42318;48.452;19.526;2023-05-12T03:47:13;98462.66;;;20.08;51.53
56414;BME280;42318;48.452;19.526;2023-05-12T03:54:44;98469.75;;;20.09;51.48
56414;BME280;42318;48.452;19.526;2023-05-12T04:02:15;98468.66;;;20.10;51.45
56414;BME280;42318;48.452;19.526;2023-05-12T04:09:46;98473.03;;;20.11;51.36
56414;BME280;42318;48.452;19.526;2023-05-12T04:17:16;98477.13;;;20.14;51.39
56414;BME280;42318;48.452;19.526;2023-05-12T04:24:48;98483.38;;;20.14;51.26
56414;BME280;42318;48.452;19.526;2023-05-12T04:32:19;98477.44;;;20.17;51.69
56414;BME280;42318;48.452;19.526;2023-05-12T04:39:50;98477.19;;;20.19;51.30
56414;BME280;42318;48.452;19.526;2023-05-12T04:47:21;98494.88;;;20.21;51.09
56414;BME280;42318;48.452;19.526;2023-05-12T04:54:52;98489.44;;;20.21;51.10
56414;BME280;42318;48.452;19.526;2023-05-12T05:02:23;98502.28;;;20.26;51.36
56414;BME280;42318;48.452;19.526;2023-05-12T05:09:54;98506.38;;;20.28;51.02
56414;BME280;42318;48.452;19.526;2023-05-12T05:17:25;98508.84;;;20.30;50.95
56414;BME280;42318;48.452;19.526;2023-05-12T05:24:55;98509.97;;;20.34;51.02
56414;BME280;42318;48.452;19.526;2023-05-12T05:32:26;98506.16;;;20.35;50.84
56414;BME280;42318;48.452;19.526;2023-05-12T05:39:57;98514.34;;;20.35;50.99
56414;BME280;42318;48.452;19.526;2023-05-12T05:47:28;98520.28;;;20.32;50.93
56414;BME280;42318;48.452;19.526;2023-05-12T05:55:00;98519.97;;;20.28;51.34
56414;BME280;42318;48.452;19.526;2023-05-12T06:02:31;98524.28;;;20.24;51.23
56414;BME280;42318;48.452;19.526;2023-05-12T06:10:03;98517.72;;;20.20;51.36
56414;BME280;42318;48.452;19.526;2023-05-12T06:17:34;98517.69;;;20.15;51.33
56414;BME280;42318;48.452;19.526;2023-05-12T06:25:05;98519.31;;;20.16;51.39
56414;BME280;42318;48.452;19.526;2023-05-12T06:32:36;98518.50;;;20.16;51.37
56414;BME280;42318;48.452;19.526;2023-05-12T06:40:07;98516.84;;;20.15;51.57
56414;BME280;42318;48.452;19.526;2023-05-12T06:47:38;98514.38;;;20.13;51.62
56414;BME280;42318;48.452;19.526;2023-05-12T06:55:09;98516.84;;;20.15;51.45
56414;BME280;42318;48.452;19.526;2023-05-12T07:02:40;98518.19;;;20.12;51.36
56414;BME280;42318;48.452;19.526;2023-05-12T07:10:11;98508.94;;;20.13;51.31
56414;BME280;42318;48.452;19.526;2023-05-12T07:17:42;98509.47;;;20.10;51.45
56414;BME280;42318;48.452;19.526;2023-05-12T07:25:13;98499.16;;;20.12;51.66
56414;BME280;42318;48.452;19.526;2023-05-12T07:32:45;98506.47;;;20.12;51.81
56414;BME280;42318;48.452;19.526;2023-05-12T07:40:16;98513.56;;;20.13;51.49
56414;BME280;42318;48.452;19.526;2023-05-12T07:47:50;98519.56;;;20.15;51.48
56414;BME280;42318;48.452;19.526;2023-05-12T07:55:21;98512.81;;;20.17;51.75
56414;BME280;42318;48.452;19.526;2023-05-12T08:02:52;98510.91;;;20.18;51.42
56414;BME280;42318;48.452;19.526;2023-05-12T08:10:23;98509.88;;;20.24;51.31
56414;BME280;42318;48.452;19.526;2023-05-12T08:17:58;98519.41;;;20.26;51.38
56414;BME280;42318;48.452;19.526;2023-05-12T08:25:29;98513.72;;;20.28;51.19
56414;BME280;42318;48.452;19.526;2023-05-12T08:33:01;98506.38;;;20.28;51.21
56414;BME280;42318;48.452;19.526;2023-05-12T08:48:41;98509.09;;;20.28;51.54
56414;BME280;42318;48.452;19.526;2023-05-12T08:56:13;98508.84;;;20.30;51.39
56414;BME280;42318;48.452;19.526;2023-05-12T09:03:45;98511.06;;;20.33;51.07
56414;BME280;42318;48.452;19.526;2023-05-12T09:11:16;98521.13;;;20.32;51.36
56414;BME280;42318;48.452;19.526;2023-05-12T09:18:55;98514.34;;;20.35;51.34
56414;BME280;42318;48.452;19.526;2023-05-12T09:26:27;98514.59;;;20.33;51.36
56414;BME280;42318;48.452;19.526;2023-05-12T09:33:58;98524.66;;;20.33;51.20
56414;BME280;42318;48.452;19.526;2023-05-12T09:41:35;98519.47;;;20.31;51.18
56414;BME280;42318;48.452;19.526;2023-05-12T09:49:06;98531.44;;;20.30;51.47
56414;BME280;42318;48.452;19.526;2023-05-12T09:56:37;98508.53;;;20.26;51.34
56414;BME280;42318;48.452;19.526;2023-05-12T10:04:08;98518.91;;;20.29;51.30
56414;BME280;42318;48.452;19.526;2023-05-12T10:11:40;98520.81;;;20.29;51.46
56414;BME280;42318;48.452;19.526;2023-05-12T10:19:12;98505.25;;;20.24;51.29
56414;BME280;42318;48.452;19.526;2023-05-12T10:26:43;98505.81;;;20.26;51.21
56414;BME280;42318;48.452;19.526;2023-05-12T10:34:17;98510.19;;;20.27;51.19
56414;BME280;42318;48.452;19.526;2023-05-12T10:41:48;98496.56;;;20.27;51.36
56414;BME280;42318;48.452;19.526;2023-05-12T10:49:31;98510.44;;;20.26;51.32
56414;BME280;42318;48.452;19.526;2023-05-12T10:57:11;98510.69;;;20.24;51.36
56414;BME280;42318;48.452;19.526;2023-05-12T11:04:48;98509.06;;;20.23;51.49
56414;BME280;42318;48.452;19.526;2023-05-12T11:12:19;98501.41;;;20.20;51.21
56414;BME280;42318;48.452;19.526;2023-05-12T11:19:50;98511.22;;;20.21;51.15
56414;BME280;42318;48.452;19.526;2023-05-12T11:27:22;98516.09;;;20.19;51.49
56414;BME280;42318;48.452;19.526;2023-05-12T11:34:53;98534.88;;;20.21;51.38
56414;BME280;42318;48.452;19.526;2023-05-12T11:42:24;98524.00;;;20.21;51.62
56414;BME280;42318;48.452;19.526;2023-05-12T11:49:54;98514.19;;;20.20;51.51
56414;BME280;42318;48.452;19.526;2023-05-12T11:57:29;98514.19;;;20.20;51.47
56414;BME280;42318;48.452;19.526;2023-05-12T12:05:01;98520.72;;;20.19;51.67
56414;BME280;42318;48.452;19.526;2023-05-12T12:12:32;98522.59;;;20.18;51.53
56414;BME280;42318;48.452;19.526;2023-05-12T12:20:03;98513.88;;;20.16;51.55
56414;BME280;42318;48.452;19.526;2023-05-12T12:27:34;98527.72;;;20.15;51.65
56414;BME280;42318;48.452;19.526;2023-05-12T12:35:05;98522.56;;;20.13;51.85
56414;BME280;42318;48.452;19.526;2023-05-12T12:42:37;98516.03;;;20.14;51.95
56414;BME280;42318;48.452;19.526;2023-05-12T12:50:10;98518.75;;;20.14;52.17
56414;BME280;42318;48.452;19.526;2023-05-12T12:57:40;98526.91;;;20.14;52.24
56414;BME280;42318;48.452;19.526;2023-05-12T13:05:11;98531.28;;;20.15;52.00
56414;BME280;42318;48.452;19.526;2023-05-12T13:12:42;98514.44;;;20.18;52.67
56414;BME280;42318;48.452;19.526;2023-05-12T13:20:14;98526.19;;;20.24;52.88
56414;BME280;42318;48.452;19.526;2023-05-12T13:27:45;98539.03;;;20.28;52.77
56414;BME280;42318;48.452;19.526;2023-05-12T13:35:15;98534.72;;;20.32;53.21
56414;BME280;42318;48.452;19.526;2023-05-12T13:42:46;98545.19;;;20.41;53.27
56414;BME280;42318;48.452;19.526;2023-05-12T13:50:17;98556.91;;;20.41;53.81
56414;BME280;42318;48.452;19.526;2023-05-12T13:57:48;98583.91;;;20.48;53.72
56414;BME280;42318;48.452;19.526;2023-05-12T14:05:19;98573.03;;;20.48;54.05
56414;BME280;42318;48.452;19.526;2023-05-12T14:12:50;98583.34;;;20.46;53.38
56414;BME280;42318;48.452;19.526;2023-05-12T14:20:20;98581.44;;;20.46;52.79
56414;BME280;42318;48.452;19.526;2023-05-12T14:27:51;98588.34;;;20.54;52.91
56414;BME280;42318;48.452;19.526;2023-05-12T14:35:22;98594.13;;;20.62;52.46
56414;BME280;42318;48.452;19.526;2023-05-12T14:42:56;98606.81;;;20.52;53.02
56414;BME280;42318;48.452;19.526;2023-05-12T14:50:27;98619.28;;;20.48;53.13
56414;BME280;42318;48.452;19.526;2023-05-12T14:57:58;98615.69;;;20.42;52.68
56414;BME280;42318;48.452;19.526;2023-05-12T15:05:29;98621.16;;;20.42;52.95
56414;BME280;42318;48.452;19.526;2023-05-12T15:13:00;98642.66;;;20.44;52.52
56414;BME280;42318;48.452;19.526;2023-05-12T15:20:31;98642.41;;;20.45;52.66
56414;BME280;42318;48.452;19.526;2023-05-12T15:28:02;98647.09;;;20.50;52.33
56414;BME280;42318;48.452;19.526;2023-05-12T15:35:33;98650.13;;;20.53;52.08
56414;BME280;42318;48.452;19.526;2023-05-12T15:43:04;98658.09;;;20.60;52.15
56414;BME280;42318;48.452;19.526;2023-05-12T15:50:35;98651.00;;;20.59;52.14
56414;BME280;42318;48.452;19.526;2023-05-12T15:58:06;98651.34;;;20.67;52.06
56414;BME280;42318;48.452;19.526;2023-05-12T16:05:39;98642.31;;;20.62;52.00
56414;BME280;42318;48.452;19.526;2023-05-12T16:13:10;98644.72;;;20.58;52.18
56414;BME280;42318;48.452;19.526;2023-05-12T16:20:41;98654.75;;;20.53;52.12
56414;BME280;42318;48.452;19.526;2023-05-12T16:28:14;98659.06;;;20.49;52.32
56414;BME280;42318;48.452;19.526;2023-05-12T16:35:44;98666.66;;;20.47;52.14
56414;BME280;42318;48.452;19.526;2023-05-12T16:43:15;98659.50;;;20.41;52.11
56414;BME280;42318;48.452;19.526;2023-05-12T16:50:46;98674.81;;;20.47;52.32
56414;BME280;42318;48.452;19.526;2023-05-12T16:58:17;98677.84;;;20.50;52.53
56414;BME280;42318;48.452;19.526;2023-05-12T17:05:48;98685.19;;;20.50;52.48
56414;BME280;42318;48.452;19.526;2023-05-12T17:13:19;98691.72;;;20.49;52.41
56414;BME280;42318;48.452;19.526;2023-05-12T17:20:50;98693.59;;;20.48;52.45
56414;BME280;42318;48.452;19.526;2023-05-12T17:28:21;98692.22;;;20.46;52.72
56414;BME280;42318;48.452;19.526;2023-05-12T17:35:52;98698.50;;;20.46;52.47
56414;BME280;42318;48.452;19.526;2023-05-12T17:43:24;98711.34;;;20.51;52.18
56414;BME280;42318;48.452;19.526;2023-05-12T17:50:55;98714.13;;;20.56;52.08
56414;BME280;42318;48.452;19.526;2023-05-12T17:58:26;98708.16;;;20.59;52.13
56414;BME280;42318;48.452;19.526;2023-05-12T18:05:57;98717.91;;;20.55;51.97
56414;BME280;42318;48.452;19.526;2023-05-12T18:13:28;98720.13;;;20.58;51.97
56414;BME280;42318;48.452;19.526;2023-05-12T18:20:59;98720.69;;;20.60;51.89
56414;BME280;42318;48.452;19.526;2023-05-12T18:28:30;98720.88;;;20.53;51.81
56414;BME280;42318;48.452;19.526;2023-05-12T18:36:02;98729.31;;;20.52;52.07
56414;BME280;42318;48.452;19.526;2023-05-12T18:43:32;98740.19;;;20.52;52.13
56414;BME280;42318;48.452;19.526;2023-05-12T18:51:04;98739.06;;;20.48;52.04
56414;BME280;42318;48.452;19.526;2023-05-12T18:58:35;98734.75;;;20.52;51.76
56414;BME280;42318;48.452;19.526;2023-05-12T19:06:08;98738.63;;;20.56;52.07
56414;BME280;42318;48.452;19.526;2023-05-12T19:13:39;98744.94;;;20.61;51.86
56414;BME280;42318;48.452;19.526;2023-05-12T19:21:12;98749.38;;;20.67;51.78
56414;BME280;42318;48.452;19.526;2023-05-12T19:28:44;98751.91;;;20.74;51.81
56414;BME280;42318;48.452;19.526;2023-05-12T19:36:14;98751.38;;;20.77;51.60
56414;BME280;42318;48.452;19.526;2023-05-12T19:43:46;98758.06;;;20.86;51.23
56414;BME280;42318;48.452;19.526;2023-05-12T19:51:17;98758.63;;;20.88;51.52
56414;BME280;42318;48.452;19.526;2023-05-12T19:58:48;98752.59;;;20.86;51.64
56414;BME280;42318;48.452;19.526;2023-05-12T20:06:19;98755.91;;;20.88;51.50
56414;BME280;42318;48.452;19.526;2023-05-12T20:13:51;98741.41;;;20.83;51.72
56414;BME280;42318;48.452;19.526;2023-05-12T20:21:22;98745.44;;;20.80;51.56
56414;BME280;42318;48.452;19.526;2023-05-12T20:28:53;98748.41;;;20.79;51.49
56414;BME280;42318;48.452;19.526;2023-05-12T20:36:26;98744.03;;;20.78;51.81
56414;BME280;42318;48.452;19.526;2023-05-12T20:43:57;98741.81;;;20.75;51.89
56414;BME280;42318;48.452;19.526;2023-05-12T20:51:28;98734.75;;;20.74;51.65
56414;BME280;42318;48.452;19.526;2023-05-12T20:58:59;98735.25;;;20.70;51.37
56414;BME280;42318;48.452;19.526;2023-05-12T21:06:30;98740.63;;;20.65;51.49
56414;BME280;42318;48.452;19.526;2023-05-12T21:14:02;98738.16;;;20.64;51.57
56414;BME280;42318;48.452;19.526;2023-05-12T21:21:33;98741.16;;;20.62;51.92
56414;BME280;42318;48.452;19.526;2023-05-12T21:29:04;98752.53;;;20.59;51.97
56414;BME280;42318;48.452;19.526;2023-05-12T21:36:35;98753.38;;;20.60;51.80
56414;BME280;42318;48.452;19.526;2023-05-12T21:44:06;98752.03;;;20.62;51.60
56414;BME280;42318;48.452;19.526;2023-05-12T21:51:37;98754.00;;;20.67;51.58
56414;BME280;42318;48.452;19.526;2023-05-12T21:59:08;98754.56;;;20.69;51.46
56414;BME280;42318;48.452;19.526;2023-05-12T22:06:39;98764.69;;;20.74;51.31
56414;BME280;42318;48.452;19.526;2023-05-12T22:14:09;98758.69;;;20.72;51.48
56414;BME280;42318;48.452;19.526;2023-05-12T22:21:40;98761.16;;;20.73;51.31
56414;BME280;42318;48.452;19.526;2023-05-12T22:29:11;98754.63;;;20.74;51.32
56414;BME280;42318;48.452;19.526;2023-05-12T22:36:42;98755.44;;;20.75;51.63
56414;BME280;42318;48.452;19.526;2023-05-12T22:44:13;98757.59;;;20.73;51.49
56414;BME280;42318;48.452;19.526;2023-05-12T22:51:43;98753.75;;;20.68;51.53
56414;BME280;42318;48.452;19.526;2023-05-12T22:59:14;98754.00;;;20.67;51.63
56414;BME280;42318;48.452;19.526;2023-05-12T23:06:45;98749.88;;;20.64;51.96
56414;BME280;42318;48.452;19.526;2023-05-12T23:14:16;98749.06;;;20.64;51.77
56414;BME280;42318;48.452;19.526;2023-05-12T23:21:47;98755.31;;;20.64;51.36
56414;BME280;42318;48.452;19.526;2023-05-12T23:29:17;98748.53;;;20.67;51.35
56414;BME280;42318;48.452;19.526;2023-05-12T23:36:48;98745.06;;;20.72;51.12
56414;BME280;42318;48.452;19.526;2023-05-12T23:44:19;98744.03;;;20.78;50.89
56414;BME280;42318;48.452;19.526;2023-05-12T23:51:50;98747.34;;;20.80;51.08
56414;BME280;42318;48.452;19.526;2023-05-12T23:59:20;98742.13;;;20.78;51.16
